createdAt,value
2018-05-04T00:00:53.395Z,67.40
2018-05-04T00:03:26.613Z,66.82
2018-05-04T00:04:26.411Z,67.01
2018-05-04T00:05:26.537Z,66.82
2018-05-04T00:06:26.355Z,67.59
2018-05-04T00:07:26.340Z,67.40
2018-05-04T00:08:26.310Z,67.01
2018-05-04T00:09:26.290Z,66.82
2018-05-04T00:10:26.263Z,66.82
2018-05-04T00:11:26.236Z,66.91
2018-05-04T00:12:26.216Z,66.72
2018-05-04T00:13:26.184Z,67.11
2018-05-04T00:14:26.164Z,67.11
2018-05-04T00:15:26.134Z,67.11
2018-05-04T00:16:26.109Z,66.91
2018-05-04T00:17:26.084Z,67.30
2018-05-04T00:18:26.067Z,66.82
2018-05-04T00:19:26.048Z,67.11
2018-05-04T00:20:26.021Z,67.49
2018-05-04T00:21:25.987Z,67.21
2018-05-04T00:22:26.004Z,66.72
2018-05-04T00:23:25.936Z,67.01
2018-05-04T00:24:25.922Z,67.01
2018-05-04T00:25:25.885Z,67.40
2018-05-04T00:26:25.860Z,67.66
2018-05-04T00:27:25.834Z,67.69
2018-05-04T00:28:25.810Z,67.66
2018-05-04T00:29:25.787Z,66.69
2018-05-04T00:30:25.757Z,66.88
2018-05-04T00:31:25.757Z,66.72
2018-05-04T00:32:25.719Z,67.27
2018-05-04T00:33:25.815Z,67.01
2018-05-04T00:34:25.663Z,67.17
2018-05-04T00:35:25.633Z,67.66
2018-05-04T00:36:25.619Z,67.56
2018-05-04T00:37:25.605Z,66.69
2018-05-04T00:38:25.558Z,66.82
2018-05-04T00:39:25.705Z,66.69
2018-05-04T00:40:25.510Z,67.27
2018-05-04T00:41:25.487Z,67.27
2018-05-04T00:42:25.460Z,67.17
2018-05-04T00:43:25.429Z,66.69
2018-05-04T00:44:25.413Z,67.69
2018-05-04T00:45:25.381Z,67.36
2018-05-04T00:46:25.363Z,66.69
2018-05-04T00:47:25.380Z,67.36
2018-05-04T00:48:25.335Z,66.98
2018-05-04T00:49:25.304Z,66.69
2018-05-04T00:50:25.296Z,66.69
2018-05-04T00:51:25.257Z,67.11
2018-05-04T00:52:25.225Z,66.69
2018-05-04T00:53:25.183Z,67.36
2018-05-04T00:54:25.153Z,66.98
2018-05-04T00:55:25.182Z,66.78
2018-05-04T00:56:25.164Z,67.40
2018-05-04T00:57:25.138Z,67.27
2018-05-04T00:58:25.123Z,67.27
2018-05-04T00:59:25.102Z,66.72
2018-05-04T01:00:25.064Z,67.27
2018-05-04T01:01:25.022Z,67.36
2018-05-04T01:02:24.951Z,67.36
2018-05-04T01:03:24.927Z,66.98
2018-05-04T01:04:24.925Z,66.98
2018-05-04T01:05:24.961Z,67.36
2018-05-04T01:06:24.871Z,66.78
2018-05-04T01:07:24.883Z,66.98
2018-05-04T01:08:24.863Z,67.56
2018-05-04T01:09:24.783Z,67.36
2018-05-04T01:10:24.767Z,67.17
2018-05-04T01:11:24.725Z,66.98
2018-05-04T01:12:24.781Z,67.36
2018-05-04T01:13:24.682Z,67.56
2018-05-04T01:14:24.709Z,67.36
2018-05-04T01:15:24.634Z,67.27
2018-05-04T01:16:24.638Z,67.36
2018-05-04T01:17:24.597Z,67.66
2018-05-04T01:18:24.559Z,67.56
2018-05-04T01:19:24.528Z,67.36
2018-05-04T01:20:24.499Z,67.17
2018-05-04T01:21:24.475Z,67.66
2018-05-04T01:22:24.491Z,67.36
2018-05-04T01:23:24.479Z,67.66
2018-05-04T01:24:24.403Z,67.66
2018-05-04T01:25:24.411Z,67.66
2018-05-04T01:26:24.369Z,67.36
2018-05-04T01:27:24.332Z,67.36
2018-05-04T01:28:24.303Z,67.66
2018-05-04T01:29:24.289Z,67.66
2018-05-04T01:30:24.256Z,67.36
2018-05-04T01:31:24.259Z,67.46
2018-05-04T01:32:24.219Z,67.56
2018-05-04T01:33:24.195Z,67.56
2018-05-04T01:34:24.171Z,67.27
2018-05-04T01:35:24.128Z,67.56
2018-05-04T01:36:24.125Z,67.46
2018-05-04T01:37:24.129Z,67.56
2018-05-04T01:38:24.055Z,67.08
2018-05-04T01:39:24.048Z,67.56
2018-05-04T01:40:24.020Z,67.36
2018-05-04T01:41:24.005Z,67.17
2018-05-04T01:42:23.953Z,67.17
2018-05-04T01:43:23.949Z,67.27
2018-05-04T01:44:23.895Z,67.36
2018-05-04T01:45:23.909Z,67.36
2018-05-04T01:46:23.843Z,67.46
2018-05-04T01:47:23.822Z,67.46
2018-05-04T01:48:23.804Z,67.36
2018-05-04T01:49:23.793Z,67.27
2018-05-04T01:50:23.744Z,67.36
2018-05-04T01:51:23.734Z,67.36
2018-05-04T01:52:23.696Z,67.27
2018-05-04T01:53:23.671Z,67.46
2018-05-04T01:54:23.692Z,67.46
2018-05-04T01:55:23.671Z,67.36
2018-05-04T01:56:23.600Z,67.36
2018-05-04T01:57:23.587Z,67.36
2018-05-04T01:58:23.555Z,67.36
2018-05-04T01:59:23.528Z,67.36
2018-05-04T02:00:23.505Z,67.36
2018-05-04T02:01:23.478Z,67.46
2018-05-04T02:02:23.453Z,67.27
2018-05-04T02:03:23.423Z,67.27
2018-05-04T02:04:23.399Z,67.36
2018-05-04T02:05:23.376Z,67.08
2018-05-04T02:06:23.341Z,67.36
2018-05-04T02:07:23.323Z,67.17
2018-05-04T02:08:23.304Z,67.36
2018-05-04T02:09:23.265Z,67.36
2018-05-04T02:10:23.242Z,67.36
2018-05-04T02:11:23.215Z,67.36
2018-05-04T02:12:23.480Z,67.46
2018-05-04T02:13:23.163Z,67.27
2018-05-04T02:14:23.139Z,67.46
2018-05-04T02:15:23.139Z,67.36
2018-05-04T02:16:23.102Z,67.46
2018-05-04T02:17:23.075Z,67.36
2018-05-04T02:18:23.049Z,67.08
2018-05-04T02:19:23.021Z,67.27
2018-05-04T02:20:23.003Z,67.27
2018-05-04T02:21:22.967Z,67.17
2018-05-04T02:22:22.952Z,67.27
2018-05-04T02:23:22.916Z,67.08
2018-05-04T02:24:22.900Z,67.66
2018-05-04T02:25:22.863Z,67.17
2018-05-04T02:26:22.844Z,67.17
2018-05-04T02:27:22.829Z,67.17
2018-05-04T02:28:22.809Z,67.17
2018-05-04T02:29:22.773Z,67.46
2018-05-04T02:30:22.747Z,67.36
2018-05-04T02:31:22.718Z,67.56
2018-05-04T02:32:22.698Z,67.56
2018-05-04T02:33:22.732Z,67.56
2018-05-04T02:34:22.647Z,67.66
2018-05-04T02:35:22.619Z,67.66
2018-05-04T02:36:22.616Z,67.56
2018-05-04T02:37:22.569Z,67.66
2018-05-04T02:38:22.595Z,67.36
2018-05-04T02:39:22.518Z,67.56
2018-05-04T02:40:22.488Z,67.56
2018-05-04T02:41:22.460Z,67.36
2018-05-04T02:42:22.436Z,67.27
2018-05-04T02:43:22.416Z,67.56
2018-05-04T02:44:22.387Z,67.36
2018-05-04T02:45:23.276Z,67.36
2018-05-04T02:46:22.347Z,67.27
2018-05-04T02:47:22.359Z,67.75
2018-05-04T02:48:22.295Z,67.36
2018-05-04T02:49:22.266Z,67.94
2018-05-04T02:50:22.260Z,67.36
2018-05-04T02:51:22.225Z,67.36
2018-05-04T02:52:22.199Z,67.94
2018-05-04T02:53:22.181Z,67.85
2018-05-04T02:54:22.136Z,67.75
2018-05-04T02:55:22.229Z,67.75
2018-05-04T02:56:22.088Z,67.94
2018-05-04T02:57:22.066Z,67.75
2018-05-04T02:58:22.043Z,68.04
2018-05-04T02:59:22.015Z,67.94
2018-05-04T03:00:21.983Z,67.66
2018-05-04T03:01:21.962Z,67.94
2018-05-04T03:02:21.936Z,67.94
2018-05-04T03:03:21.911Z,67.94
2018-05-04T03:04:21.887Z,67.94
2018-05-04T03:05:21.858Z,67.85
2018-05-04T03:06:21.844Z,67.94
2018-05-04T03:07:21.804Z,67.66
2018-05-04T03:08:21.791Z,67.75
2018-05-04T03:09:21.756Z,67.94
2018-05-04T03:10:21.752Z,67.94
2018-05-04T03:11:21.709Z,67.94
2018-05-04T03:12:21.695Z,67.56
2018-05-04T03:13:21.655Z,67.56
2018-05-04T03:14:21.641Z,67.56
2018-05-04T03:15:21.614Z,67.66
2018-05-04T03:16:21.591Z,67.66
2018-05-04T03:17:21.563Z,67.66
2018-05-04T03:18:21.533Z,67.66
2018-05-04T03:19:21.541Z,67.66
2018-05-04T03:20:21.489Z,67.75
2018-05-04T03:21:21.490Z,67.46
2018-05-04T03:22:21.432Z,67.56
2018-05-04T03:23:21.420Z,67.75
2018-05-04T03:24:21.404Z,67.66
2018-05-04T03:25:21.363Z,67.66
2018-05-04T03:26:21.522Z,67.85
2018-05-04T03:27:21.665Z,67.66
2018-05-04T03:28:22.289Z,67.66
2018-05-04T03:29:21.262Z,67.56
2018-05-04T03:30:21.310Z,67.75
2018-05-04T03:31:21.211Z,68.33
2018-05-04T03:32:21.191Z,68.33
2018-05-04T03:33:21.157Z,68.33
2018-05-04T03:34:21.127Z,68.33
2018-05-04T03:35:21.109Z,68.33
2018-05-04T03:36:21.088Z,68.20
2018-05-04T03:37:21.058Z,68.33
2018-05-04T03:38:21.200Z,68.33
2018-05-04T03:39:21.011Z,68.14
2018-05-04T03:40:20.980Z,68.24
2018-05-04T03:41:20.966Z,68.33
2018-05-04T03:42:20.959Z,68.10
2018-05-04T03:43:20.904Z,68.30
2018-05-04T03:44:20.892Z,68.14
2018-05-04T03:45:20.845Z,68.33
2018-05-04T03:46:20.820Z,68.04
2018-05-04T03:47:20.793Z,68.14
2018-05-04T03:48:20.772Z,68.30
2018-05-04T03:49:20.747Z,67.94
2018-05-04T03:50:20.728Z,67.82
2018-05-04T03:51:20.701Z,67.94
2018-05-04T03:52:20.687Z,68.10
2018-05-04T03:53:20.658Z,67.82
2018-05-04T03:54:20.642Z,68.01
2018-05-04T03:55:20.593Z,68.01
2018-05-04T03:56:20.574Z,68.01
2018-05-04T03:57:20.543Z,68.10
2018-05-04T03:58:20.530Z,68.01
2018-05-04T03:59:20.510Z,68.10
2018-05-04T04:00:20.476Z,68.10
2018-05-04T04:01:20.459Z,68.04
2018-05-04T04:02:20.470Z,68.01
2018-05-04T04:03:20.394Z,68.01
2018-05-04T04:04:20.369Z,68.01
2018-05-04T04:05:20.341Z,68.01
2018-05-04T04:06:20.345Z,67.85
2018-05-04T04:07:20.302Z,67.94
2018-05-04T04:08:20.272Z,68.01
2018-05-04T04:09:20.237Z,68.10
2018-05-04T04:10:20.250Z,67.82
2018-05-04T04:11:20.202Z,67.72
2018-05-04T04:12:20.185Z,68.14
2018-05-04T04:13:20.137Z,68.04
2018-05-04T04:14:20.138Z,67.62
2018-05-04T04:15:20.091Z,67.82
2018-05-04T04:16:20.069Z,68.14
2018-05-04T04:17:20.051Z,67.82
2018-05-04T04:18:20.017Z,68.01
2018-05-04T04:19:20.003Z,67.62
2018-05-04T04:20:19.981Z,67.72
2018-05-04T04:21:19.936Z,67.62
2018-05-04T04:22:19.924Z,67.75
2018-05-04T04:23:19.976Z,67.85
2018-05-04T04:24:19.878Z,67.72
2018-05-04T04:25:19.931Z,67.94
2018-05-04T04:26:19.825Z,67.82
2018-05-04T04:27:19.794Z,68.24
2018-05-04T04:28:19.882Z,68.24
2018-05-04T04:29:19.734Z,68.30
2018-05-04T04:30:19.716Z,68.24
2018-05-04T04:31:19.688Z,68.24
2018-05-04T04:32:19.671Z,68.30
2018-05-04T04:33:19.648Z,67.75
2018-05-04T04:34:19.617Z,68.33
2018-05-04T04:35:19.704Z,68.30
2018-05-04T04:36:19.569Z,68.30
2018-05-04T04:37:19.539Z,67.75
2018-05-04T04:38:19.608Z,68.30
2018-05-04T04:39:19.487Z,68.40
2018-05-04T04:40:19.457Z,68.68
2018-05-04T04:41:19.450Z,68.24
2018-05-04T04:42:19.413Z,68.20
2018-05-04T04:43:19.392Z,68.72
2018-05-04T04:44:19.375Z,68.62
2018-05-04T04:45:19.331Z,68.24
2018-05-04T04:46:19.323Z,68.01
2018-05-04T04:47:19.296Z,68.43
2018-05-04T04:48:19.272Z,68.01
2018-05-04T04:49:19.234Z,68.40
2018-05-04T04:50:19.216Z,68.20
2018-05-04T04:51:19.183Z,68.01
2018-05-04T04:52:19.157Z,67.91
2018-05-04T04:53:19.127Z,68.10
2018-05-04T04:54:19.104Z,67.91
2018-05-04T04:55:19.084Z,68.01
2018-05-04T04:56:19.060Z,68.10
2018-05-04T04:57:19.031Z,68.10
2018-05-04T04:58:19.007Z,67.91
2018-05-04T04:59:19.002Z,68.10
2018-05-04T05:00:18.954Z,68.10
2018-05-04T05:01:18.927Z,68.20
2018-05-04T05:02:18.904Z,67.91
2018-05-04T05:03:18.884Z,67.94
2018-05-04T05:04:18.851Z,67.91
2018-05-04T05:05:18.827Z,67.91
2018-05-04T05:06:18.806Z,68.01
2018-05-04T05:07:18.791Z,68.01
2018-05-04T05:08:18.753Z,68.10
2018-05-04T05:09:18.736Z,68.52
2018-05-04T05:10:18.702Z,68.10
2018-05-04T05:11:18.672Z,68.40
2018-05-04T05:12:18.647Z,68.04
2018-05-04T05:13:18.631Z,68.20
2018-05-04T05:14:18.605Z,68.49
2018-05-04T05:15:18.576Z,68.10
2018-05-04T05:16:18.551Z,68.20
2018-05-04T05:17:18.553Z,68.20
2018-05-04T05:18:18.578Z,68.68
2018-05-04T05:19:18.473Z,68.49
2018-05-04T05:20:18.516Z,68.49
2018-05-04T05:21:18.424Z,68.68
2018-05-04T05:22:18.401Z,68.40
2018-05-04T05:23:18.451Z,68.59
2018-05-04T05:24:18.348Z,68.59
2018-05-04T05:25:18.396Z,68.30
2018-05-04T05:26:18.311Z,68.30
2018-05-04T05:27:18.277Z,68.30
2018-05-04T05:28:18.246Z,68.24
2018-05-04T05:29:18.223Z,68.49
2018-05-04T05:30:18.199Z,68.10
2018-05-04T05:31:18.167Z,68.40
2018-05-04T05:32:18.144Z,68.40
2018-05-04T05:33:18.120Z,68.43
2018-05-04T05:34:18.106Z,68.40
2018-05-04T05:35:18.070Z,68.30
2018-05-04T05:36:18.042Z,68.49
2018-05-04T05:37:18.027Z,68.49
2018-05-04T05:38:17.987Z,68.40
2018-05-04T05:39:17.979Z,68.10
2018-05-04T05:40:17.942Z,68.20
2018-05-04T05:41:17.960Z,68.20
2018-05-04T05:42:17.910Z,68.24
2018-05-04T05:43:17.882Z,68.10
2018-05-04T05:44:17.838Z,68.20
2018-05-04T05:45:17.814Z,68.30
2018-05-04T05:46:17.792Z,68.68
2018-05-04T05:47:17.767Z,68.20
2018-05-04T05:48:17.736Z,68.68
2018-05-04T05:49:17.720Z,68.88
2018-05-04T05:50:17.688Z,68.88
2018-05-04T05:51:17.667Z,68.98
2018-05-04T05:52:17.635Z,68.88
2018-05-04T05:53:17.615Z,68.82
2018-05-04T05:54:17.597Z,68.91
2018-05-04T05:55:17.563Z,68.91
2018-05-04T05:56:17.535Z,68.78
2018-05-04T05:57:17.514Z,68.78
2018-05-04T05:58:17.485Z,68.68
2018-05-04T05:59:17.467Z,68.68
2018-05-04T06:00:17.441Z,68.59
2018-05-04T06:01:17.428Z,68.88
2018-05-04T06:02:17.379Z,68.59
2018-05-04T06:03:17.366Z,68.59
2018-05-04T06:04:17.335Z,68.98
2018-05-04T06:05:17.305Z,68.88
2018-05-04T06:06:17.282Z,69.01
2018-05-04T06:07:17.256Z,68.59
2018-05-04T06:08:17.254Z,68.59
2018-05-04T06:09:17.219Z,68.59
2018-05-04T06:10:17.177Z,68.59
2018-05-04T06:11:17.168Z,68.59
2018-05-04T06:12:17.166Z,68.59
2018-05-04T06:13:17.157Z,68.59
2018-05-04T06:14:17.092Z,68.68
2018-05-04T06:15:17.058Z,68.68
2018-05-04T06:16:17.029Z,68.78
2018-05-04T06:17:17.001Z,68.59
2018-05-04T06:18:16.981Z,68.78
2018-05-04T06:19:16.953Z,68.78
2018-05-04T06:20:16.925Z,68.91
2018-05-04T06:21:16.899Z,69.07
2018-05-04T06:22:16.873Z,69.17
2018-05-04T06:23:16.857Z,69.07
2018-05-04T06:24:16.832Z,68.68
2018-05-04T06:25:16.820Z,68.88
2018-05-04T06:26:16.783Z,68.98
2018-05-04T06:27:16.759Z,68.88
2018-05-04T06:28:16.723Z,68.98
2018-05-04T06:29:16.751Z,68.82
2018-05-04T06:30:16.674Z,69.46
2018-05-04T06:31:16.726Z,69.26
2018-05-04T06:32:16.644Z,69.36
2018-05-04T06:33:16.598Z,69.26
2018-05-04T06:34:16.604Z,69.30
2018-05-04T06:35:16.562Z,69.17
2018-05-04T06:36:16.538Z,69.17
2018-05-04T06:37:16.497Z,69.17
2018-05-04T06:38:16.534Z,69.26
2018-05-04T06:39:16.448Z,69.07
2018-05-04T06:40:16.436Z,69.07
2018-05-04T06:41:16.405Z,69.10
2018-05-04T06:42:16.387Z,69.26
2018-05-04T06:43:16.347Z,69.26
2018-05-04T06:44:16.361Z,69.07
2018-05-04T06:45:16.370Z,69.07
2018-05-04T06:46:16.281Z,69.17
2018-05-04T06:47:16.245Z,69.26
2018-05-04T06:48:16.237Z,68.98
2018-05-04T06:49:16.194Z,69.17
2018-05-04T06:50:16.168Z,69.17
2018-05-04T06:51:16.157Z,69.17
2018-05-04T06:52:16.120Z,69.26
2018-05-04T06:53:16.164Z,69.07
2018-05-04T06:54:16.071Z,68.98
2018-05-04T06:55:16.055Z,69.07
2018-05-04T06:56:16.021Z,69.20
2018-05-04T06:57:15.994Z,69.17
2018-05-04T06:58:15.974Z,69.07
2018-05-04T06:59:15.944Z,69.17
2018-05-04T07:00:15.918Z,68.88
2018-05-04T07:01:15.888Z,68.78
2018-05-04T07:02:15.865Z,68.98
2018-05-04T07:03:15.854Z,68.98
2018-05-04T07:04:15.825Z,68.98
2018-05-04T07:05:15.790Z,69.36
2018-05-04T07:06:15.766Z,69.01
2018-05-04T07:07:15.737Z,69.36
2018-05-04T07:08:15.721Z,69.26
2018-05-04T07:09:15.694Z,69.36
2018-05-04T07:10:15.671Z,68.98
2018-05-04T07:11:15.639Z,68.98
2018-05-04T07:12:15.613Z,69.01
2018-05-04T07:13:15.615Z,69.26
2018-05-04T07:14:15.573Z,68.88
2018-05-04T07:15:15.558Z,68.88
2018-05-04T07:16:15.519Z,68.88
2018-05-04T07:17:15.491Z,69.07
2018-05-04T07:18:15.459Z,69.26
2018-05-04T07:19:15.490Z,69.07
2018-05-04T07:20:15.416Z,69.07
2018-05-04T07:21:15.395Z,69.26
2018-05-04T07:22:15.357Z,69.36
2018-05-04T07:23:15.357Z,69.46
2018-05-04T07:24:15.315Z,69.07
2018-05-04T07:25:15.289Z,69.46
2018-05-04T07:26:15.256Z,69.20
2018-05-04T07:27:15.236Z,69.17
2018-05-04T07:28:15.209Z,69.46
2018-05-04T07:29:15.223Z,69.46
2018-05-04T07:30:15.160Z,69.40
2018-05-04T07:31:15.165Z,69.17
2018-05-04T07:32:15.106Z,69.84
2018-05-04T07:33:15.078Z,70.04
2018-05-04T07:34:15.058Z,69.94
2018-05-04T07:35:15.037Z,69.94
2018-05-04T07:36:15.008Z,69.46
2018-05-04T07:37:14.982Z,70.07
2018-05-04T07:38:14.957Z,70.04
2018-05-04T07:39:14.941Z,70.07
2018-05-04T07:40:14.955Z,69.94
2018-05-04T07:41:14.883Z,69.84
2018-05-04T07:42:14.871Z,69.74
2018-05-04T07:43:14.843Z,69.56
2018-05-04T07:44:14.806Z,69.65
2018-05-04T07:45:14.795Z,69.65
2018-05-04T07:46:14.899Z,69.84
2018-05-04T07:47:14.927Z,69.65
2018-05-04T07:48:14.704Z,69.65
2018-05-04T07:49:14.681Z,69.65
2018-05-04T07:50:14.684Z,69.94
2018-05-04T07:51:14.629Z,69.65
2018-05-04T07:52:14.602Z,69.46
2018-05-04T07:53:14.601Z,69.65
2018-05-04T07:54:14.555Z,69.74
2018-05-04T07:55:14.551Z,69.84
2018-05-04T07:56:14.512Z,69.56
2018-05-04T07:57:14.475Z,69.56
2018-05-04T07:58:14.445Z,69.84
2018-05-04T07:59:14.421Z,69.74
2018-05-04T08:00:14.401Z,69.74
2018-05-04T08:01:14.374Z,69.74
2018-05-04T08:02:14.351Z,69.74
2018-05-04T08:03:14.318Z,70.04
2018-05-04T08:04:14.298Z,70.32
2018-05-04T08:05:14.275Z,69.84
2018-05-04T08:06:14.245Z,70.32
2018-05-04T08:07:14.219Z,70.23
2018-05-04T08:08:14.199Z,70.04
2018-05-04T08:09:14.167Z,70.04
2018-05-04T08:10:14.147Z,69.94
2018-05-04T08:11:14.129Z,69.94
2018-05-04T08:12:14.098Z,70.04
2018-05-04T08:13:14.077Z,70.14
2018-05-04T08:14:14.050Z,69.84
2018-05-04T08:15:14.015Z,70.14
2018-05-04T08:16:13.999Z,70.32
2018-05-04T08:17:13.971Z,70.14
2018-05-04T08:18:13.961Z,70.14
2018-05-04T08:19:13.919Z,70.23
2018-05-04T08:20:13.927Z,70.32
2018-05-04T08:21:13.865Z,70.23
2018-05-04T08:22:13.888Z,69.94
2018-05-04T08:23:13.815Z,69.74
2018-05-04T08:24:13.787Z,70.23
2018-05-04T08:25:13.766Z,70.42
2018-05-04T08:26:13.744Z,70.14
2018-05-04T08:27:13.719Z,70.32
2018-05-04T08:28:13.688Z,69.84
2018-05-04T08:29:13.659Z,69.94
2018-05-04T08:30:13.640Z,69.74
2018-05-04T08:31:13.613Z,69.94
2018-05-04T08:32:13.592Z,69.74
2018-05-04T08:33:13.563Z,70.04
2018-05-04T08:34:13.541Z,69.74
2018-05-04T08:35:13.601Z,69.94
2018-05-04T08:36:13.491Z,70.14
2018-05-04T08:37:13.460Z,70.14
2018-05-04T08:38:13.438Z,69.94
2018-05-04T08:39:13.409Z,70.14
2018-05-04T08:40:13.393Z,70.04
2018-05-04T08:41:13.356Z,69.94
2018-05-04T08:42:13.330Z,69.94
2018-05-04T08:43:13.357Z,69.74
2018-05-04T08:44:13.287Z,69.74
2018-05-04T08:45:13.271Z,69.84
2018-05-04T08:46:13.233Z,69.94
2018-05-04T08:47:13.211Z,69.94
2018-05-04T08:48:13.199Z,69.94
2018-05-04T08:49:13.157Z,69.84
2018-05-04T08:50:13.137Z,69.74
2018-05-04T08:51:13.159Z,69.74
2018-05-04T08:52:13.082Z,69.94
2018-05-04T08:53:13.060Z,70.04
2018-05-04T08:54:13.081Z,70.32
2018-05-04T08:55:13.018Z,69.65
2018-05-04T08:56:12.980Z,69.84
2018-05-04T08:57:13.050Z,69.84
2018-05-04T08:58:12.935Z,69.94
2018-05-04T08:59:12.903Z,70.14
2018-05-04T09:00:12.879Z,70.04
2018-05-04T09:01:12.857Z,70.14
2018-05-04T09:02:12.827Z,69.84
2018-05-04T09:03:12.798Z,69.94
2018-05-04T09:04:12.782Z,69.94
2018-05-04T09:05:12.840Z,69.74
2018-05-04T09:06:12.734Z,69.65
2018-05-04T09:07:12.703Z,69.74
2018-05-04T09:08:12.675Z,70.14
2018-05-04T09:09:12.649Z,70.23
2018-05-04T09:10:12.625Z,70.04
2018-05-04T09:11:12.597Z,69.84
2018-05-04T09:12:12.580Z,69.94
2018-05-04T09:13:12.549Z,70.42
2018-05-04T09:14:12.522Z,70.23
2018-05-04T09:15:12.516Z,69.84
2018-05-04T09:16:12.474Z,70.14
2018-05-04T09:17:12.456Z,70.52
2018-05-04T09:18:12.433Z,70.23
2018-05-04T09:19:12.410Z,70.04
2018-05-04T09:20:12.374Z,70.42
2018-05-04T09:21:12.351Z,70.72
2018-05-04T09:22:12.327Z,70.72
2018-05-04T09:23:12.302Z,70.72
2018-05-04T09:24:12.271Z,70.32
2018-05-04T09:25:12.262Z,70.52
2018-05-04T09:26:12.218Z,70.52
2018-05-04T09:27:12.197Z,70.62
2018-05-04T09:28:12.175Z,70.52
2018-05-04T09:29:12.145Z,70.32
2018-05-04T09:30:12.118Z,70.62
2018-05-04T09:31:12.101Z,70.42
2018-05-04T09:32:12.074Z,70.32
2018-05-04T09:33:12.041Z,70.62
2018-05-04T09:34:12.017Z,70.23
2018-05-04T09:35:11.994Z,70.14
2018-05-04T09:36:11.977Z,70.23
2018-05-04T09:37:12.043Z,70.23
2018-05-04T09:38:11.921Z,70.23
2018-05-04T09:39:11.899Z,70.32
2018-05-04T09:40:11.877Z,70.23
2018-05-04T09:41:11.837Z,70.14
2018-05-04T09:42:11.828Z,70.14
2018-05-04T09:43:11.800Z,70.42
2018-05-04T09:44:11.767Z,70.32
2018-05-04T09:45:11.746Z,70.23
2018-05-04T09:46:11.714Z,70.32
2018-05-04T09:47:11.696Z,70.42
2018-05-04T09:48:11.668Z,70.32
2018-05-04T09:49:11.707Z,70.52
2018-05-04T09:50:11.663Z,70.42
2018-05-04T09:51:11.588Z,70.04
2018-05-04T09:52:11.567Z,70.62
2018-05-04T09:53:11.537Z,70.62
2018-05-04T09:54:11.515Z,70.52
2018-05-04T09:55:11.486Z,70.14
2018-05-04T09:56:11.557Z,70.52
2018-05-04T09:57:11.436Z,70.32
2018-05-04T09:58:11.411Z,70.32
2018-05-04T09:59:11.388Z,70.32
2018-05-04T10:00:11.358Z,70.32
2018-05-04T10:01:11.421Z,70.04
2018-05-04T10:02:11.312Z,70.23
2018-05-04T10:03:11.291Z,70.23
2018-05-04T10:04:11.261Z,70.52
2018-05-04T10:05:11.234Z,70.42
2018-05-04T10:06:11.205Z,70.23
2018-05-04T10:07:11.179Z,70.23
2018-05-04T10:08:11.160Z,70.32
2018-05-04T10:09:11.141Z,70.32
2018-05-04T10:10:11.106Z,70.32
2018-05-04T10:11:11.083Z,70.04
2018-05-04T10:12:11.084Z,70.52
2018-05-04T10:13:11.036Z,70.04
2018-05-04T10:14:11.008Z,70.42
2018-05-04T10:15:10.978Z,70.04
2018-05-04T10:16:11.025Z,70.23
2018-05-04T10:17:10.939Z,70.52
2018-05-04T10:18:10.902Z,70.62
2018-05-04T10:19:10.878Z,70.23
2018-05-04T10:20:10.852Z,70.23
2018-05-04T10:21:10.836Z,70.42
2018-05-04T10:22:10.803Z,70.42
2018-05-04T10:23:10.783Z,70.52
2018-05-04T10:24:10.759Z,70.42
2018-05-04T10:25:10.725Z,70.32
2018-05-04T10:26:10.698Z,70.23
2018-05-04T10:27:10.677Z,70.32
2018-05-04T10:28:10.651Z,70.23
2018-05-04T10:29:10.628Z,70.32
2018-05-04T10:30:10.602Z,70.32
2018-05-04T10:31:10.579Z,70.23
2018-05-04T10:32:10.570Z,70.23
2018-05-04T10:33:10.530Z,70.23
2018-05-04T10:34:10.495Z,70.14
2018-05-04T10:35:10.478Z,70.14
2018-05-04T10:36:10.444Z,70.14
2018-05-04T10:37:10.416Z,70.42
2018-05-04T10:38:10.483Z,70.23
2018-05-04T10:39:10.370Z,70.14
2018-05-04T10:40:10.350Z,70.32
2018-05-04T10:41:10.337Z,70.23
2018-05-04T10:42:10.293Z,70.14
2018-05-04T10:43:10.286Z,70.23
2018-05-04T10:44:10.254Z,70.14
2018-05-04T10:45:10.248Z,70.14
2018-05-04T10:46:10.207Z,70.23
2018-05-04T10:47:10.174Z,70.14
2018-05-04T10:48:10.148Z,70.23
2018-05-04T10:49:10.112Z,70.62
2018-05-04T10:50:10.094Z,70.14
2018-05-04T10:51:10.076Z,70.72
2018-05-04T10:52:10.040Z,70.72
2018-05-04T10:53:10.018Z,70.62
2018-05-04T10:54:09.991Z,70.72
2018-05-04T10:55:09.970Z,70.62
2018-05-04T10:56:11.786Z,70.52
2018-05-04T10:57:09.993Z,70.32
2018-05-04T10:58:09.896Z,70.23
2018-05-04T10:59:09.864Z,70.23
2018-05-04T11:00:09.839Z,70.14
2018-05-04T11:01:09.809Z,70.14
2018-05-04T11:02:12.172Z,70.23
2018-05-04T11:03:09.762Z,70.32
2018-05-04T11:04:09.736Z,70.42
2018-05-04T11:05:09.719Z,70.52
2018-05-04T11:06:09.684Z,70.23
2018-05-04T11:07:10.199Z,70.23
2018-05-04T11:08:09.627Z,70.23
2018-05-04T11:09:09.604Z,70.52
2018-05-04T11:10:09.589Z,70.52
2018-05-04T11:11:09.557Z,70.52
2018-05-04T11:12:09.548Z,70.52
2018-05-04T11:13:09.505Z,70.52
2018-05-04T11:14:09.481Z,70.32
2018-05-04T11:15:09.458Z,70.52
2018-05-04T11:16:09.433Z,70.32
2018-05-04T11:17:09.648Z,70.62
2018-05-04T11:18:12.190Z,70.52
2018-05-04T11:19:09.357Z,70.42
2018-05-04T11:20:09.330Z,70.52
2018-05-04T11:21:09.323Z,70.42
2018-05-04T11:22:09.284Z,70.90
2018-05-04T11:23:09.254Z,70.52
2018-05-04T11:24:09.231Z,70.62
2018-05-04T11:25:09.206Z,70.72
2018-05-04T11:26:09.179Z,70.90
2018-05-04T11:27:09.160Z,70.62
2018-05-04T11:28:09.123Z,70.81
2018-05-04T11:29:09.142Z,70.81
2018-05-04T11:30:09.074Z,70.81
2018-05-04T11:31:09.056Z,70.62
2018-05-04T11:32:09.031Z,70.81
2018-05-04T11:33:08.996Z,70.52
2018-05-04T11:34:08.973Z,70.90
2018-05-04T11:35:08.954Z,70.81
2018-05-04T11:36:08.920Z,70.42
2018-05-04T11:37:08.896Z,70.81
2018-05-04T11:38:08.876Z,71.00
2018-05-04T11:39:08.868Z,70.81
2018-05-04T11:40:08.911Z,70.52
2018-05-04T11:41:08.797Z,70.62
2018-05-04T11:42:08.779Z,70.52
2018-05-04T11:43:08.743Z,70.52
2018-05-04T11:44:08.758Z,71.39
2018-05-04T11:45:08.695Z,70.81
2018-05-04T11:46:08.671Z,70.52
2018-05-04T11:47:08.680Z,70.72
2018-05-04T11:48:08.621Z,70.81
2018-05-04T11:49:08.592Z,70.72
2018-05-04T11:50:08.572Z,70.72
2018-05-04T11:51:08.573Z,70.52
2018-05-04T11:52:08.544Z,70.90
2018-05-04T11:53:08.486Z,70.87
2018-05-04T11:54:08.466Z,70.72
2018-05-04T11:55:08.534Z,71.00
2018-05-04T11:56:08.424Z,71.48
2018-05-04T11:57:08.392Z,70.90
2018-05-04T11:58:08.364Z,71.30
2018-05-04T11:59:08.353Z,71.39
2018-05-04T12:00:08.322Z,71.39
2018-05-04T12:01:08.292Z,71.39
2018-05-04T12:02:08.344Z,71.30
2018-05-04T12:03:08.236Z,71.26
2018-05-04T12:04:08.214Z,71.20
2018-05-04T12:05:08.185Z,71.48
2018-05-04T12:06:08.197Z,71.58
2018-05-04T12:07:08.137Z,71.58
2018-05-04T12:08:08.113Z,71.58
2018-05-04T12:09:08.088Z,71.10
2018-05-04T12:10:08.058Z,71.20
2018-05-04T12:11:08.044Z,71.10
2018-05-04T12:12:08.053Z,71.30
2018-05-04T12:13:08.020Z,71.68
2018-05-04T12:14:07.956Z,71.48
2018-05-04T12:15:07.938Z,71.78
2018-05-04T12:16:07.914Z,71.68
2018-05-04T12:17:07.963Z,71.78
2018-05-04T12:18:07.855Z,71.30
2018-05-04T12:19:07.841Z,71.78
2018-05-04T12:20:07.812Z,71.48
2018-05-04T12:21:07.859Z,71.48
2018-05-04T12:22:07.762Z,71.78
2018-05-04T12:23:07.730Z,71.58
2018-05-04T12:24:07.770Z,71.48
2018-05-04T12:25:07.688Z,72.16
2018-05-04T12:26:07.665Z,71.68
2018-05-04T12:27:07.656Z,71.78
2018-05-04T12:28:07.611Z,71.78
2018-05-04T12:29:07.592Z,71.58
2018-05-04T12:30:07.561Z,72.16
2018-05-04T12:31:07.530Z,71.78
2018-05-04T12:32:07.508Z,72.06
2018-05-04T12:33:07.486Z,71.68
2018-05-04T12:34:07.479Z,71.58
2018-05-04T12:35:07.537Z,71.88
2018-05-04T12:36:07.425Z,71.97
2018-05-04T12:37:07.479Z,71.97
2018-05-04T12:38:07.373Z,71.88
2018-05-04T12:39:07.356Z,72.06
2018-05-04T12:40:07.315Z,71.97
2018-05-04T12:41:07.294Z,71.78
2018-05-04T12:42:07.278Z,72.06
2018-05-04T12:43:07.240Z,71.88
2018-05-04T12:44:07.197Z,71.78
2018-05-04T12:45:07.180Z,72.06
2018-05-04T12:46:07.208Z,71.97
2018-05-04T12:47:07.214Z,72.16
2018-05-04T12:48:07.125Z,71.78
2018-05-04T12:49:07.093Z,72.26
2018-05-04T12:50:07.040Z,72.45
2018-05-04T12:51:07.020Z,72.16
2018-05-04T12:52:06.997Z,71.97
2018-05-04T12:53:06.981Z,72.26
2018-05-04T12:54:06.947Z,72.16